createdAt,value
2022-11-25T00:00:33.429Z,23.80
2022-11-25T00:02:59.876Z,23.05
2022-11-25T00:05:26.805Z,20.40
2022-11-25T00:07:53.283Z,19.05
2022-11-25T00:10:19.804Z,18.55
2022-11-25T00:12:46.229Z,20.42
2022-11-25T00:15:12.575Z,19.75
2022-11-25T00:17:39.186Z,23.63
2022-11-25T00:20:06.145Z,21.50
2022-11-25T00:22:32.662Z,22.50
2022-11-25T00:24:59.214Z,21.92
2022-11-25T00:27:25.554Z,24.05
2022-11-25T00:29:53.242Z,19.50
2022-11-25T00:32:19.769Z,20.50
2022-11-25T00:34:46.175Z,22.42
2022-11-25T00:37:12.637Z,21.92
2022-11-25T00:39:38.967Z,22.58
2022-11-25T00:42:24.002Z,21.02
2022-11-25T00:44:50.430Z,21.70
2022-11-25T00:47:20.291Z,21.45
2022-11-25T00:49:48.738Z,26.33
2022-11-25T00:52:17.344Z,29.00
2022-11-25T00:54:47.604Z,23.27
2022-11-25T00:57:15.223Z,25.40
2022-11-25T00:59:41.631Z,26.23
2022-11-25T01:02:08.253Z,26.58
2022-11-25T01:04:35.201Z,26.55
2022-11-25T01:07:02.174Z,30.60
2022-11-25T01:09:29.050Z,25.92
2022-11-25T01:11:55.422Z,23.95
2022-11-25T01:14:23.076Z,27.20
2022-11-25T01:16:51.410Z,27.88
2022-11-25T01:19:19.140Z,24.80
2022-11-25T01:21:46.911Z,28.88
2022-11-25T01:24:15.365Z,33.55
2022-11-25T01:26:42.655Z,29.60
2022-11-25T01:29:15.120Z,25.48
2022-11-25T01:31:42.568Z,24.17
2022-11-25T01:34:21.186Z,28.15
2022-11-25T01:36:48.148Z,27.30
2022-11-25T01:39:20.420Z,27.70
2022-11-25T01:41:47.871Z,26.88
2022-11-25T01:44:25.417Z,28.27
2022-11-25T01:47:16.993Z,29.92
2022-11-25T01:49:53.897Z,39.58
2022-11-25T01:52:28.873Z,36.50
2022-11-25T01:55:08.975Z,34.38
2022-11-25T01:57:59.350Z,35.65
2022-11-25T02:00:25.796Z,34.53
2022-11-25T02:02:54.878Z,33.10
2022-11-25T02:05:33.646Z,29.98
2022-11-25T02:08:00.875Z,33.42
2022-11-25T02:10:30.557Z,30.00
2022-11-25T02:12:59.258Z,27.98
2022-11-25T02:15:26.596Z,30.60
2022-11-25T02:17:53.218Z,29.50
2022-11-25T02:20:23.830Z,29.67
2022-11-25T02:23:16.010Z,31.13
2022-11-25T02:25:45.503Z,22.15
2022-11-25T02:28:17.174Z,24.45
2022-11-25T02:30:44.539Z,24.48
2022-11-25T02:33:11.857Z,26.02
2022-11-25T02:35:43.138Z,27.73
2022-11-25T02:38:15.305Z,25.83
2022-11-25T02:40:47.603Z,31.63
2022-11-25T02:43:14.762Z,31.98
2022-11-25T02:46:00.148Z,29.30
2022-11-25T02:48:52.896Z,26.08
2022-11-25T02:51:17.244Z,26.33
2022-11-25T02:53:44.083Z,24.45
2022-11-25T02:56:12.724Z,27.42
2022-11-25T02:58:39.799Z,30.98
2022-11-25T03:01:08.315Z,25.17
2022-11-25T03:03:35.874Z,40.30
2022-11-25T03:06:02.770Z,34.00
2022-11-25T03:08:29.214Z,33.33
2022-11-25T03:10:55.773Z,35.45
2022-11-25T03:13:22.311Z,34.33
2022-11-25T03:15:48.682Z,35.72
2022-11-25T03:18:15.159Z,35.03
2022-11-25T03:20:41.917Z,30.10
2022-11-25T03:23:08.376Z,29.83
2022-11-25T03:25:35.921Z,30.90
2022-11-25T03:28:03.551Z,35.90
2022-11-25T03:30:30.446Z,36.22
2022-11-25T03:32:59.264Z,26.80
2022-11-25T03:35:26.897Z,37.10
2022-11-25T03:37:53.405Z,33.00
2022-11-25T03:40:19.893Z,31.50
2022-11-25T03:42:46.473Z,34.95
2022-11-25T03:45:14.780Z,33.85
2022-11-25T03:47:43.318Z,30.45
2022-11-25T03:50:12.541Z,31.67
2022-11-25T03:52:39.526Z,30.15
2022-11-25T03:55:08.389Z,27.33
2022-11-25T03:57:36.157Z,32.03
2022-11-25T04:00:04.417Z,27.42
2022-11-25T04:02:44.442Z,28.40
2022-11-25T04:05:12.499Z,34.50
2022-11-25T04:07:39.727Z,30.02
2022-11-25T04:10:08.391Z,26.92
2022-11-25T04:12:47.459Z,33.70
2022-11-25T04:15:18.623Z,26.45
2022-11-25T04:17:49.708Z,30.13
2022-11-25T04:20:16.267Z,32.08
2022-11-25T04:22:46.262Z,31.15
2022-11-25T04:25:12.791Z,26.58
2022-11-25T04:27:39.334Z,32.15
2022-11-25T04:30:07.009Z,28.95
2022-11-25T04:32:38.149Z,27.40
2022-11-25T04:35:06.286Z,23.45
2022-11-25T04:37:33.250Z,26.75
2022-11-25T04:39:59.727Z,21.80
2022-11-25T04:42:32.890Z,23.98
2022-11-25T04:47:52.990Z,26.23
2022-11-25T04:50:22.323Z,24.38
2022-11-25T04:52:55.590Z,20.17
2022-11-25T04:55:23.005Z,24.65
2022-11-25T04:57:50.197Z,24.95
2022-11-25T05:00:17.042Z,25.50
2022-11-25T05:02:43.615Z,23.67
2022-11-25T05:05:18.272Z,26.55
2022-11-25T05:07:45.219Z,22.70
2022-11-25T05:10:12.677Z,22.20
2022-11-25T05:12:43.812Z,20.20
2022-11-25T05:15:15.414Z,28.58
2022-11-25T05:17:44.740Z,30.58
2022-11-25T05:20:11.607Z,26.30
2022-11-25T05:22:38.403Z,21.85
2022-11-25T05:25:07.054Z,18.80
2022-11-25T05:27:38.425Z,21.20
2022-11-25T05:30:08.930Z,23.60
2022-11-25T05:32:35.390Z,18.92
2022-11-25T05:35:07.013Z,23.67
2022-11-25T05:37:34.103Z,20.50
2022-11-25T05:40:04.698Z,20.10
2022-11-25T05:42:43.453Z,20.00
2022-11-25T05:45:11.176Z,18.25
2022-11-25T05:47:38.779Z,20.27
2022-11-25T05:50:07.013Z,24.00
2022-11-25T05:52:33.994Z,23.75
2022-11-25T05:55:01.563Z,22.50
2022-11-25T05:57:29.197Z,25.70
2022-11-25T06:00:00.599Z,25.65
2022-11-25T06:02:43.753Z,20.15
2022-11-25T06:05:13.150Z,29.23
2022-11-25T06:07:39.809Z,24.73
2022-11-25T06:10:07.311Z,25.15
2022-11-25T06:12:35.994Z,20.48
2022-11-25T06:15:03.511Z,26.20
2022-11-25T06:17:30.525Z,23.55
2022-11-25T06:20:09.425Z,22.17
2022-11-25T06:22:35.870Z,23.15
2022-11-25T06:25:04.120Z,26.15
2022-11-25T06:27:56.834Z,25.85
2022-11-25T06:30:20.582Z,24.20
2022-11-25T06:33:00.001Z,19.42
2022-11-25T06:35:26.778Z,22.27
2022-11-25T06:37:59.235Z,21.88
2022-11-25T06:40:25.843Z,26.88
2022-11-25T06:42:52.228Z,21.75
2022-11-25T06:45:20.548Z,23.08
2022-11-25T06:47:46.995Z,24.67
2022-11-25T06:50:13.343Z,27.67
2022-11-25T06:52:39.849Z,21.17
2022-11-25T06:55:06.495Z,25.58
2022-11-25T06:57:32.859Z,23.98
2022-11-25T06:59:59.287Z,26.77
2022-11-25T07:02:25.825Z,25.83
2022-11-25T07:04:52.243Z,26.38
2022-11-25T07:07:18.631Z,22.48
2022-11-25T07:09:45.198Z,22.10
2022-11-25T07:12:12.337Z,24.58
2022-11-25T07:14:39.048Z,23.90
2022-11-25T07:17:11.600Z,21.08
2022-11-25T07:19:38.505Z,22.92
2022-11-25T07:22:04.953Z,26.67
2022-11-25T07:24:31.384Z,24.58
2022-11-25T07:26:57.836Z,20.40
2022-11-25T07:32:11.143Z,19.60
2022-11-25T07:34:37.822Z,24.20
2022-11-25T07:37:04.254Z,22.23
2022-11-25T07:39:30.869Z,18.90
2022-11-25T07:41:57.414Z,23.27
2022-11-25T07:44:23.802Z,14.68
2022-11-25T07:47:00.753Z,16.63
2022-11-25T07:49:28.434Z,20.92
2022-11-25T07:51:57.547Z,21.95
2022-11-25T07:54:24.331Z,23.25
2022-11-25T07:56:51.591Z,19.15
2022-11-25T07:59:21.182Z,19.95
2022-11-25T08:01:55.512Z,24.00
2022-11-25T08:04:23.139Z,16.73
2022-11-25T08:06:51.902Z,17.48
2022-11-25T08:09:21.638Z,18.90
2022-11-25T08:11:49.202Z,19.42
2022-11-25T08:14:16.459Z,20.73
2022-11-25T08:16:43.222Z,19.73
2022-11-25T08:19:13.627Z,19.13
2022-11-25T08:21:40.294Z,21.25
2022-11-25T08:24:06.873Z,18.35
2022-11-25T08:26:39.597Z,16.73
2022-11-25T08:29:07.191Z,18.15
2022-11-25T08:31:36.750Z,20.05
2022-11-25T08:34:04.961Z,23.45
2022-11-25T08:36:32.117Z,18.42
2022-11-25T08:39:00.031Z,15.82
2022-11-25T08:41:32.528Z,19.30
2022-11-25T08:44:00.951Z,19.35
2022-11-25T08:46:30.045Z,23.88
2022-11-25T08:48:56.832Z,12.50
2022-11-25T08:51:26.861Z,16.83
2022-11-25T08:53:53.830Z,21.45
2022-11-25T08:56:25.993Z,19.52
2022-11-25T08:58:54.232Z,22.05
2022-11-25T09:01:22.359Z,19.02
2022-11-25T09:03:51.674Z,19.75
2022-11-25T09:06:18.799Z,24.02
2022-11-25T09:08:46.120Z,12.15
2022-11-25T09:11:13.491Z,16.60
2022-11-25T09:13:40.091Z,18.95
2022-11-25T09:16:07.392Z,12.98
2022-11-25T09:18:35.277Z,15.27
2022-11-25T09:21:09.702Z,25.55
2022-11-25T09:23:38.407Z,20.52
2022-11-25T09:26:06.346Z,19.42
2022-11-25T09:28:32.994Z,23.00
2022-11-25T09:30:59.497Z,15.07
2022-11-25T09:33:25.898Z,20.80
2022-11-25T09:35:52.487Z,24.27
2022-11-25T09:38:18.848Z,19.50
2022-11-25T09:40:53.747Z,15.45
2022-11-25T09:44:03.503Z,18.55
2022-11-25T09:46:41.844Z,16.25
2022-11-25T09:49:45.599Z,20.42
2022-11-25T09:52:17.605Z,14.68
2022-11-25T09:55:06.764Z,18.27
2022-11-25T09:57:56.478Z,20.30
2022-11-25T10:00:33.534Z,16.80
2022-11-25T10:03:05.791Z,17.20
2022-11-25T10:05:41.746Z,19.23
2022-11-25T10:08:23.279Z,20.52
2022-11-25T10:11:02.973Z,19.95
2022-11-25T10:13:50.025Z,18.15
2022-11-25T10:16:27.635Z,16.38
2022-11-25T10:19:06.217Z,17.98
2022-11-25T10:21:32.558Z,16.73
2022-11-25T10:23:59.178Z,22.58
2022-11-25T10:26:31.941Z,18.60
2022-11-25T10:29:13.568Z,22.13
2022-11-25T10:31:42.428Z,22.83
2022-11-25T10:34:24.254Z,23.95
2022-11-25T10:36:52.925Z,18.50
2022-11-25T10:39:26.975Z,16.75
2022-11-25T10:42:04.667Z,17.02
2022-11-25T10:44:39.835Z,18.40
2022-11-25T10:47:32.023Z,22.15
2022-11-25T10:50:26.457Z,15.35
2022-11-25T10:53:21.526Z,23.20
2022-11-25T10:56:12.390Z,14.63
2022-11-25T10:58:42.305Z,14.95
2022-11-25T11:01:23.172Z,15.63
2022-11-25T11:04:05.724Z,15.77
2022-11-25T11:06:36.374Z,25.08
2022-11-25T11:09:03.762Z,20.10
2022-11-25T11:11:30.714Z,16.83
2022-11-25T11:14:20.318Z,18.27
2022-11-25T11:16:57.202Z,18.02
2022-11-25T11:19:27.123Z,16.45
2022-11-25T11:21:56.400Z,18.85
2022-11-25T11:24:34.313Z,13.48
2022-11-25T11:27:05.193Z,18.83
2022-11-25T11:29:32.101Z,18.65
2022-11-25T11:32:01.605Z,16.92
2022-11-25T11:34:55.386Z,17.98
2022-11-25T11:37:38.703Z,18.50
2022-11-25T11:40:17.363Z,22.65
2022-11-25T11:42:50.405Z,18.67
2022-11-25T11:45:48.223Z,19.63
2022-11-25T11:48:29.414Z,23.45
2022-11-25T11:51:14.351Z,15.00
2022-11-25T11:53:51.154Z,22.10
2022-11-25T11:56:39.345Z,19.00
2022-11-25T11:59:19.344Z,18.20
2022-11-25T12:02:04.433Z,24.10
2022-11-25T12:04:41.817Z,20.25
2022-11-25T12:07:31.289Z,20.33
2022-11-25T12:10:06.309Z,22.98
2022-11-25T12:12:38.604Z,20.08
2022-11-25T12:15:16.843Z,27.30
2022-11-25T12:17:54.489Z,24.83
2022-11-25T12:20:38.622Z,19.90
2022-11-25T12:23:24.976Z,17.85
2022-11-25T12:25:57.604Z,19.25
2022-11-25T12:28:39.213Z,21.25
2022-11-25T12:31:16.401Z,27.23
2022-11-25T12:34:07.638Z,21.08
2022-11-25T12:36:35.324Z,25.52
2022-11-25T12:39:24.221Z,16.75
2022-11-25T12:41:59.343Z,19.73
2022-11-25T12:44:31.150Z,21.48
2022-11-25T12:46:58.319Z,18.92
2022-11-25T12:49:30.125Z,17.55
2022-11-25T12:52:21.255Z,19.70
2022-11-25T12:55:04.360Z,23.13
2022-11-25T12:57:57.004Z,19.88
2022-11-25T13:01:00.207Z,19.38
2022-11-25T13:04:13.024Z,23.63
2022-11-25T13:07:21.274Z,17.80
2022-11-25T13:10:14.192Z,23.67
2022-11-25T13:12:57.841Z,21.33
2022-11-25T13:15:38.047Z,23.20
2022-11-25T13:18:14.233Z,30.98
2022-11-25T13:20:47.147Z,21.67
2022-11-25T13:23:16.752Z,15.93
2022-11-25T13:25:46.797Z,18.45
2022-11-25T13:28:32.864Z,21.23
2022-11-25T13:31:21.381Z,22.15
2022-11-25T13:33:47.843Z,24.50
2022-11-25T13:36:20.062Z,18.60
2022-11-25T13:38:49.803Z,21.10
2022-11-25T13:41:16.099Z,25.38
2022-11-25T13:44:01.784Z,22.67
2022-11-25T13:46:45.365Z,23.50
2022-11-25T13:49:37.523Z,21.35
2022-11-25T13:52:12.951Z,19.92
2022-11-25T13:54:45.969Z,24.55
2022-11-25T13:57:12.231Z,24.02
2022-11-25T14:00:01.021Z,16.77
2022-11-25T14:02:27.689Z,18.98
2022-11-25T14:05:06.682Z,18.95
2022-11-25T14:07:58.203Z,26.60
2022-11-25T14:10:41.473Z,20.23
2022-11-25T14:13:35.968Z,17.45
2022-11-25T14:16:43.511Z,19.90
2022-11-25T14:19:43.211Z,25.88
2022-11-25T14:22:09.708Z,21.75
2022-11-25T14:24:36.030Z,21.85
2022-11-25T14:27:04.465Z,20.67
2022-11-25T14:29:40.433Z,19.98
2022-11-25T14:32:22.687Z,20.27
2022-11-25T14:34:59.641Z,22.40
2022-11-25T14:37:42.458Z,24.55
2022-11-25T14:40:21.080Z,23.25
2022-11-25T14:42:51.975Z,16.45
2022-11-25T14:45:30.954Z,24.05
2022-11-25T14:47:57.553Z,18.10
2022-11-25T14:50:34.728Z,15.55
2022-11-25T14:53:06.561Z,22.35
2022-11-25T14:55:32.967Z,19.65
2022-11-25T14:57:59.602Z,23.23
2022-11-25T15:00:26.277Z,26.33
2022-11-25T15:03:01.359Z,23.83
2022-11-25T15:05:37.918Z,20.63
2022-11-25T15:08:13.138Z,23.95
2022-11-25T15:10:51.336Z,26.67
2022-11-25T15:13:32.662Z,20.75
2022-11-25T15:16:08.246Z,26.83
2022-11-25T15:18:35.586Z,22.20
2022-11-25T15:21:03.089Z,23.48
2022-11-25T15:23:34.512Z,20.30
2022-11-25T15:26:02.250Z,24.42
2022-11-25T15:28:36.476Z,27.52
2022-11-25T15:31:12.561Z,29.08
2022-11-25T15:33:40.343Z,27.83
2022-11-25T15:36:06.964Z,22.33
2022-11-25T15:38:37.265Z,23.98
2022-11-25T15:41:05.527Z,28.10
2022-11-25T15:43:44.571Z,25.23
2022-11-25T15:46:11.100Z,19.48
2022-11-25T15:48:47.211Z,19.90
2022-11-25T15:51:20.037Z,21.35
2022-11-25T15:53:53.306Z,22.55
2022-11-25T15:56:23.412Z,19.90
2022-11-25T15:58:50.009Z,19.08
2022-11-25T16:01:17.100Z,18.08
2022-11-25T16:03:44.927Z,20.83
2022-11-25T16:06:19.425Z,18.88
2022-11-25T16:09:00.836Z,18.23
2022-11-25T16:11:33.051Z,19.13
2022-11-25T16:14:30.739Z,17.60
2022-11-25T16:17:02.798Z,30.08
2022-11-25T16:19:38.500Z,27.13
2022-11-25T16:22:05.640Z,25.75
2022-11-25T16:24:48.787Z,29.55
2022-11-25T16:27:25.597Z,36.30
2022-11-25T16:29:57.808Z,32.45
2022-11-25T16:32:26.951Z,32.13
2022-11-25T16:34:56.708Z,35.90
2022-11-25T16:37:23.857Z,32.90
2022-11-25T16:39:50.197Z,29.85
2022-11-25T16:42:21.850Z,27.48
2022-11-25T16:44:50.878Z,26.67
2022-11-25T16:47:20.057Z,30.70
2022-11-25T16:49:46.928Z,30.35
2022-11-25T16:52:14.164Z,29.85
2022-11-25T16:54:41.811Z,24.80
2022-11-25T16:57:16.101Z,24.25
2022-11-25T16:59:44.529Z,33.30
2022-11-25T17:02:18.503Z,23.92
2022-11-25T17:04:46.166Z,24.40
2022-11-25T17:07:32.859Z,24.48
2022-11-25T17:09:59.834Z,21.15
2022-11-25T17:12:30.362Z,25.08
2022-11-25T17:14:59.698Z,21.45
2022-11-25T17:17:27.007Z,23.35
2022-11-25T17:19:53.747Z,27.15
2022-11-25T17:22:22.963Z,28.42
2022-11-25T17:24:49.350Z,31.48
2022-11-25T17:27:33.846Z,41.13
2022-11-25T17:30:03.953Z,29.00
2022-11-25T17:32:31.202Z,32.92
2022-11-25T17:34:57.606Z,29.15
2022-11-25T17:37:25.464Z,26.10
2022-11-25T17:39:53.412Z,27.13
2022-11-25T17:42:26.520Z,26.45
2022-11-25T17:44:54.357Z,30.75
2022-11-25T17:47:21.091Z,27.73
2022-11-25T17:49:48.199Z,26.42
2022-11-25T17:52:14.586Z,28.38
2022-11-25T17:54:41.752Z,25.35
2022-11-25T17:57:14.089Z,29.85
2022-11-25T17:59:40.981Z,26.92
2022-11-25T18:02:18.933Z,29.42
2022-11-25T18:04:45.728Z,32.15
2022-11-25T18:07:12.155Z,33.25
2022-11-25T18:09:38.651Z,33.55
2022-11-25T18:12:10.588Z,29.02
2022-11-25T18:14:37.982Z,28.95
2022-11-25T18:17:07.475Z,29.05
2022-11-25T18:19:34.653Z,25.08
2022-11-25T18:22:10.808Z,30.25
2022-11-25T18:24:37.549Z,31.88
2022-11-25T18:27:05.801Z,43.75
2022-11-25T18:29:32.492Z,33.97
2022-11-25T18:31:59.607Z,34.25
2022-11-25T18:34:26.745Z,39.72
2022-11-25T18:36:53.650Z,41.65
2022-11-25T18:39:20.467Z,42.75
2022-11-25T18:41:47.877Z,44.42
2022-11-25T18:44:37.821Z,32.58
2022-11-25T18:47:05.455Z,35.92
2022-11-25T18:49:31.862Z,32.20
2022-11-25T18:51:58.239Z,30.17
2022-11-25T18:54:24.634Z,35.47
2022-11-25T18:56:52.099Z,30.70
2022-11-25T18:59:26.767Z,29.52
2022-11-25T19:01:54.253Z,30.27
2022-11-25T19:04:20.658Z,29.70
2022-11-25T19:06:47.081Z,30.08
2022-11-25T19:09:13.547Z,23.65
2022-11-25T19:11:45.592Z,30.98
2022-11-25T19:14:23.603Z,34.50
2022-11-25T19:16:50.138Z,36.03
2022-11-25T19:19:16.898Z,35.58
2022-11-25T19:21:43.562Z,44.40
2022-11-25T19:24:13.158Z,41.42
2022-11-25T19:26:52.197Z,42.05
2022-11-25T19:29:42.304Z,39.78
2022-11-25T19:32:26.234Z,49.10
2022-11-25T19:35:03.348Z,48.00
2022-11-25T19:37:32.840Z,50.97
2022-11-25T19:39:59.187Z,43.88
2022-11-25T19:42:25.812Z,49.85
2022-11-25T19:44:52.902Z,44.15
2022-11-25T19:47:22.024Z,53.60
2022-11-25T19:49:50.961Z,48.28
2022-11-25T19:52:20.577Z,46.42
2022-11-25T19:54:47.543Z,46.55
2022-11-25T19:57:20.470Z,35.65
2022-11-25T19:59:47.671Z,34.72
2022-11-25T20:02:22.646Z,43.40
2022-11-25T20:04:52.430Z,43.05
2022-11-25T20:07:20.291Z,48.58
2022-11-25T20:09:47.527Z,49.47
2022-11-25T20:12:23.739Z,53.50
2022-11-25T20:14:50.766Z,51.08
2022-11-25T20:17:29.524Z,44.42
2022-11-25T20:19:59.972Z,44.08
2022-11-25T20:22:32.432Z,43.78
2022-11-25T20:25:02.258Z,52.75
2022-11-25T20:27:29.285Z,47.20
2022-11-25T20:29:55.855Z,43.70
2022-11-25T20:32:28.000Z,48.25
2022-11-25T20:34:58.272Z,36.75
2022-11-25T20:37:26.302Z,45.88
2022-11-25T20:39:55.901Z,43.83
2022-11-25T20:42:23.095Z,42.55
2022-11-25T20:44:52.121Z,45.95
2022-11-25T20:47:24.424Z,50.65
2022-11-25T20:49:50.781Z,42.22
2022-11-25T20:52:26.718Z,46.63
2022-11-25T20:54:53.070Z,44.70
2022-11-25T20:57:19.399Z,49.05
2022-11-25T20:59:46.086Z,38.97
2022-11-25T21:02:12.545Z,34.88
2022-11-25T21:04:39.287Z,44.97
2022-11-25T21:07:07.013Z,39.38
2022-11-25T21:09:35.699Z,40.35
2022-11-25T21:12:03.181Z,45.10
2022-11-25T21:14:30.055Z,35.85
2022-11-25T21:16:56.502Z,47.30
2022-11-25T21:19:22.967Z,36.88
2022-11-25T21:21:50.732Z,40.10
2022-11-25T21:24:28.776Z,39.25
2022-11-25T21:26:56.854Z,47.83
2022-11-25T21:29:23.339Z,40.13
2022-11-25T21:31:49.740Z,41.42
2022-11-25T21:34:16.206Z,36.80
2022-11-25T21:36:45.207Z,43.70
2022-11-25T21:39:26.778Z,38.38
2022-11-25T21:41:54.222Z,29.90
2022-11-25T21:44:32.798Z,28.10
2022-11-25T21:46:59.222Z,30.60
2022-11-25T21:49:26.482Z,26.48
2022-11-25T21:51:52.942Z,24.00
2022-11-25T21:54:19.427Z,28.17
2022-11-25T21:56:46.226Z,30.60
2022-11-25T21:59:18.659Z,24.52
2022-11-25T22:01:47.066Z,26.42
2022-11-25T22:04:19.502Z,32.78
2022-11-25T22:06:46.879Z,35.45
2022-11-25T22:09:14.085Z,31.13
2022-11-25T22:11:47.564Z,32.47
2022-11-25T22:14:27.707Z,34.53
2022-11-25T22:16:55.966Z,26.92
2022-11-25T22:19:25.932Z,27.83
2022-11-25T22:21:52.440Z,22.58
2022-11-25T22:24:19.987Z,26.17
2022-11-25T22:26:51.275Z,37.15
2022-11-25T22:29:22.552Z,29.63
2022-11-25T22:31:49.753Z,30.15
2022-11-25T22:34:21.893Z,34.85
2022-11-25T22:36:49.299Z,25.23
2022-11-25T22:39:21.330Z,22.60
2022-11-25T22:41:50.728Z,27.98
2022-11-25T22:44:45.768Z,23.58
2022-11-25T22:47:39.089Z,26.70
2022-11-25T22:50:16.805Z,23.98
2022-11-25T22:52:43.161Z,22.23
2022-11-25T22:55:27.783Z,22.05
2022-11-25T22:57:56.388Z,31.67
2022-11-25T23:00:28.782Z,23.60
2022-11-25T23:02:57.118Z,22.58
2022-11-25T23:05:33.302Z,21.17
2022-11-25T23:08:02.460Z,24.40
2022-11-25T23:10:30.879Z,27.67
2022-11-25T23:12:57.247Z,24.08
2022-11-25T23:15:24.652Z,29.42
2022-11-25T23:17:54.857Z,19.25
2022-11-25T23:20:26.738Z,25.17
2022-11-25T23:22:53.398Z,20.80
2022-11-25T23:25:21.667Z,26.50
2022-11-25T23:27:48.083Z,20.33
2022-11-25T23:30:20.405Z,20.27
2022-11-25T23:32:50.070Z,28.52
2022-11-25T23:35:18.801Z,30.10
2022-11-25T23:37:50.311Z,18.23
2022-11-25T23:40:21.340Z,22.17
2022-11-25T23:42:48.194Z,21.20
2022-11-25T23:45:17.103Z,17.98
2022-11-25T23:47:46.338Z,31.85
2022-11-25T23:50:26.734Z,23.65
2022-11-25T23:52:57.993Z,20.83
2022-11-25T23:55:28.782Z,27.40
2022-11-25T23:57:55.671Z,18.65
